sensor_id;sensor_type;location;lat;lon;timestamp;P1;durP1;ratioP1;P2;durP2;ratioP2
18230;SDS011;9240;49.966;21.994;2024-02-14T00:01:42;18.30;;;10.37;;
18230;SDS011;9240;49.966;21.994;2024-02-14T00:04:07;19.27;;;9.67;;
18230;SDS011;9240;49.966;21.994;2024-02-14T00:06:34;21.77;;;10.83;;
18230;SDS011;9240;49.966;21.994;2024-02-14T00:09:00;19.33;;;9.90;;
18230;SDS011;9240;49.966;21.994;2024-02-14T00:11:26;17.87;;;9.07;;
18230;SDS011;9240;49.966;21.994;2024-02-14T00:13:51;21.20;;;9.67;;
18230;SDS011;9240;49.966;21.994;2024-02-14T00:16:18;20.00;;;8.83;;
18230;SDS011;9240;49.966;21.994;2024-02-14T00:18:44;20.30;;;8.47;;
18230;SDS011;9240;49.966;21.994;2024-02-14T00:21:09;21.90;;;8.67;;
18230;SDS011;9240;49.966;21.994;2024-02-14T00:23:35;15.87;;;8.77;;
18230;SDS011;9240;49.966;21.994;2024-02-14T00:26:00;19.53;;;9.50;;
18230;SDS011;9240;49.966;21.994;2024-02-14T00:28:26;23.87;;;10.43;;
18230;SDS011;9240;49.966;21.994;2024-02-14T00:30:51;19.53;;;10.00;;
18230;SDS011;9240;49.966;21.994;2024-02-14T00:33:18;24.97;;;10.97;;
18230;SDS011;9240;49.966;21.994;2024-02-14T00:35:44;22.07;;;10.93;;
18230;SDS011;9240;49.966;21.994;2024-02-14T00:38:11;20.10;;;10.73;;
18230;SDS011;9240;49.966;21.994;2024-02-14T00:40:36;22.00;;;11.60;;
18230;SDS011;9240;49.966;21.994;2024-02-14T00:43:02;26.33;;;12.07;;
18230;SDS011;9240;49.966;21.994;2024-02-14T00:45:27;23.03;;;12.40;;
18230;SDS011;9240;49.966;21.994;2024-02-14T00:47:53;21.37;;;11.87;;
18230;SDS011;9240;49.966;21.994;2024-02-14T00:50:20;23.70;;;11.50;;
18230;SDS011;9240;49.966;21.994;2024-02-14T00:52:45;20.23;;;11.13;;
18230;SDS011;9240;49.966;21.994;2024-02-14T00:55:11;23.87;;;11.57;;
18230;SDS011;9240;49.966;21.994;2024-02-14T00:57:36;26.30;;;12.17;;
18230;SDS011;9240;49.966;21.994;2024-02-14T01:00:02;22.33;;;11.10;;
18230;SDS011;9240;49.966;21.994;2024-02-14T01:02:28;24.00;;;11.83;;
18230;SDS011;9240;49.966;21.994;2024-02-14T01:04:54;25.60;;;11.83;;
18230;SDS011;9240;49.966;21.994;2024-02-14T01:07:21;25.00;;;11.97;;
18230;SDS011;9240;49.966;21.994;2024-02-14T01:09:46;24.87;;;11.93;;
18230;SDS011;9240;49.966;21.994;2024-02-14T01:12:12;24.70;;;10.63;;
18230;SDS011;9240;49.966;21.994;2024-02-14T01:14:38;24.53;;;11.90;;
18230;SDS011;9240;49.966;21.994;2024-02-14T01:17:03;28.13;;;11.50;;
18230;SDS011;9240;49.966;21.994;2024-02-14T01:19:29;19.40;;;10.50;;
18230;SDS011;9240;49.966;21.994;2024-02-14T01:21:54;21.53;;;11.03;;
18230;SDS011;9240;49.966;21.994;2024-02-14T01:24:21;23.00;;;12.60;;
18230;SDS011;9240;49.966;21.994;2024-02-14T01:26:47;22.70;;;12.43;;
18230;SDS011;9240;49.966;21.994;2024-02-14T01:29:13;24.13;;;10.97;;
18230;SDS011;9240;49.966;21.994;2024-02-14T01:31:38;22.33;;;12.07;;
18230;SDS011;9240;49.966;21.994;2024-02-14T01:34:04;24.07;;;11.93;;
18230;SDS011;9240;49.966;21.994;2024-02-14T01:36:29;23.73;;;11.43;;
18230;SDS011;9240;49.966;21.994;2024-02-14T01:38:55;23.93;;;11.30;;
18230;SDS011;9240;49.966;21.994;2024-02-14T01:41:22;24.80;;;11.90;;
18230;SDS011;9240;49.966;21.994;2024-02-14T01:43:49;24.70;;;11.63;;
18230;SDS011;9240;49.966;21.994;2024-02-14T01:46:14;25.17;;;10.97;;
18230;SDS011;9240;49.966;21.994;2024-02-14T01:48:41;25.37;;;12.03;;
18230;SDS011;9240;49.966;21.994;2024-02-14T01:51:07;27.70;;;11.00;;
18230;SDS011;9240;49.966;21.994;2024-02-14T01:53:36;19.17;;;9.27;;
18230;SDS011;9240;49.966;21.994;2024-02-14T01:56:02;20.67;;;9.70;;
18230;SDS011;9240;49.966;21.994;2024-02-14T01:58:30;20.03;;;9.37;;
18230;SDS011;9240;49.966;21.994;2024-02-14T02:00:55;28.27;;;10.03;;
18230;SDS011;9240;49.966;21.994;2024-02-14T02:03:21;19.13;;;9.30;;
18230;SDS011;9240;49.966;21.994;2024-02-14T02:05:47;19.37;;;8.93;;
18230;SDS011;9240;49.966;21.994;2024-02-14T02:08:13;16.70;;;8.80;;
18230;SDS011;9240;49.966;21.994;2024-02-14T02:10:39;15.70;;;7.73;;
18230;SDS011;9240;49.966;21.994;2024-02-14T02:13:05;16.70;;;7.73;;
18230;SDS011;9240;49.966;21.994;2024-02-14T02:15:32;13.90;;;7.40;;
18230;SDS011;9240;49.966;21.994;2024-02-14T02:17:57;14.37;;;6.90;;
18230;SDS011;9240;49.966;21.994;2024-02-14T02:20:23;21.63;;;7.43;;
18230;SDS011;9240;49.966;21.994;2024-02-14T02:22:50;17.03;;;7.50;;
18230;SDS011;9240;49.966;21.994;2024-02-14T02:25:16;17.60;;;7.37;;
18230;SDS011;9240;49.966;21.994;2024-02-14T02:27:41;13.97;;;6.73;;
18230;SDS011;9240;49.966;21.994;2024-02-14T02:30:07;14.10;;;7.50;;
18230;SDS011;9240;49.966;21.994;2024-02-14T02:32:33;15.63;;;7.83;;
18230;SDS011;9240;49.966;21.994;2024-02-14T02:34:58;15.20;;;7.13;;
18230;SDS011;9240;49.966;21.994;2024-02-14T02:37:24;15.27;;;7.03;;
18230;SDS011;9240;49.966;21.994;2024-02-14T02:39:52;14.50;;;7.47;;
18230;SDS011;9240;49.966;21.994;2024-02-14T02:42:17;14.67;;;7.20;;
18230;SDS011;9240;49.966;21.994;2024-02-14T02:44:45;15.50;;;7.07;;
18230;SDS011;9240;49.966;21.994;2024-02-14T02:47:11;15.07;;;7.87;;
18230;SDS011;9240;49.966;21.994;2024-02-14T02:49:37;14.93;;;7.87;;
18230;SDS011;9240;49.966;21.994;2024-02-14T02:52:02;13.67;;;7.47;;
18230;SDS011;9240;49.966;21.994;2024-02-14T02:54:28;16.90;;;7.03;;
18230;SDS011;9240;49.966;21.994;2024-02-14T02:56:55;15.67;;;8.07;;
18230;SDS011;9240;49.966;21.994;2024-02-14T02:59:21;14.77;;;7.17;;
18230;SDS011;9240;49.966;21.994;2024-02-14T03:01:46;18.53;;;7.67;;
18230;SDS011;9240;49.966;21.994;2024-02-14T03:04:12;16.80;;;7.50;;
18230;SDS011;9240;49.966;21.994;2024-02-14T03:06:37;12.77;;;7.20;;
18230;SDS011;9240;49.966;21.994;2024-02-14T03:09:03;14.73;;;7.50;;
18230;SDS011;9240;49.966;21.994;2024-02-14T03:11:29;21.80;;;8.10;;
18230;SDS011;9240;49.966;21.994;2024-02-14T03:13:56;19.00;;;8.40;;
18230;SDS011;9240;49.966;21.994;2024-02-14T03:16:21;14.90;;;7.53;;
18230;SDS011;9240;49.966;21.994;2024-02-14T03:18:47;15.80;;;7.23;;
18230;SDS011;9240;49.966;21.994;2024-02-14T03:21:12;17.03;;;7.17;;
18230;SDS011;9240;49.966;21.994;2024-02-14T03:23:38;18.73;;;8.13;;
18230;SDS011;9240;49.966;21.994;2024-02-14T03:26:03;15.77;;;7.80;;
18230;SDS011;9240;49.966;21.994;2024-02-14T03:28:29;17.37;;;8.37;;
18230;SDS011;9240;49.966;21.994;2024-02-14T03:30:56;14.40;;;8.03;;
18230;SDS011;9240;49.966;21.994;2024-02-14T03:33:21;18.20;;;8.70;;
18230;SDS011;9240;49.966;21.994;2024-02-14T03:35:47;15.00;;;8.20;;
18230;SDS011;9240;49.966;21.994;2024-02-14T03:38:12;17.00;;;8.33;;
18230;SDS011;9240;49.966;21.994;2024-02-14T03:40:38;18.00;;;8.50;;
18230;SDS011;9240;49.966;21.994;2024-02-14T03:43:04;16.73;;;8.40;;
18230;SDS011;9240;49.966;21.994;2024-02-14T03:45:29;19.43;;;8.50;;
18230;SDS011;9240;49.966;21.994;2024-02-14T03:47:56;15.37;;;8.60;;
18230;SDS011;9240;49.966;21.994;2024-02-14T03:50:22;15.20;;;8.33;;
18230;SDS011;9240;49.966;21.994;2024-02-14T03:52:47;18.60;;;8.73;;
18230;SDS011;9240;49.966;21.994;2024-02-14T03:55:13;16.43;;;8.13;;
18230;SDS011;9240;49.966;21.994;2024-02-14T03:57:39;20.13;;;9.20;;
18230;SDS011;9240;49.966;21.994;2024-02-14T04:00:05;17.00;;;8.63;;
18230;SDS011;9240;49.966;21.994;2024-02-14T04:02:31;17.87;;;8.97;;
18230;SDS011;9240;49.966;21.994;2024-02-14T04:04:58;19.33;;;8.60;;
18230;SDS011;9240;49.966;21.994;2024-02-14T04:07:24;18.77;;;9.20;;
18230;SDS011;9240;49.966;21.994;2024-02-14T04:09:49;19.63;;;8.20;;
18230;SDS011;9240;49.966;21.994;2024-02-14T04:12:15;18.07;;;8.23;;
18230;SDS011;9240;49.966;21.994;2024-02-14T04:14:40;17.47;;;8.53;;
18230;SDS011;9240;49.966;21.994;2024-02-14T04:17:06;13.40;;;7.87;;
18230;SDS011;9240;49.966;21.994;2024-02-14T04:19:31;19.43;;;8.60;;
18230;SDS011;9240;49.966;21.994;2024-02-14T04:21:58;16.13;;;8.17;;
18230;SDS011;9240;49.966;21.994;2024-02-14T04:24:24;16.07;;;7.00;;
18230;SDS011;9240;49.966;21.994;2024-02-14T04:26:49;14.67;;;7.90;;
18230;SDS011;9240;49.966;21.994;2024-02-14T04:29:15;16.13;;;7.77;;
18230;SDS011;9240;49.966;21.994;2024-02-14T04:31:41;18.60;;;8.60;;
18230;SDS011;9240;49.966;21.994;2024-02-14T04:34:06;15.90;;;8.10;;
18230;SDS011;9240;49.966;21.994;2024-02-14T04:36:32;25.03;;;10.43;;
18230;SDS011;9240;49.966;21.994;2024-02-14T04:38:59;28.73;;;11.20;;
18230;SDS011;9240;49.966;21.994;2024-02-14T04:41:24;27.93;;;11.30;;
18230;SDS011;9240;49.966;21.994;2024-02-14T04:43:50;22.73;;;10.30;;
18230;SDS011;9240;49.966;21.994;2024-02-14T04:46:15;20.97;;;9.63;;
18230;SDS011;9240;49.966;21.994;2024-02-14T04:48:41;23.33;;;11.50;;
18230;SDS011;9240;49.966;21.994;2024-02-14T04:51:06;22.93;;;11.33;;
18230;SDS011;9240;49.966;21.994;2024-02-14T04:53:32;20.40;;;10.17;;
18230;SDS011;9240;49.966;21.994;2024-02-14T04:55:59;24.17;;;11.77;;
18230;SDS011;9240;49.966;21.994;2024-02-14T04:58:25;24.60;;;13.27;;
18230;SDS011;9240;49.966;21.994;2024-02-14T05:00:50;21.47;;;13.00;;
18230;SDS011;9240;49.966;21.994;2024-02-14T05:03:16;24.97;;;13.50;;
18230;SDS011;9240;49.966;21.994;2024-02-14T05:05:41;43.07;;;23.33;;
18230;SDS011;9240;49.966;21.994;2024-02-14T05:08:07;42.80;;;22.37;;
18230;SDS011;9240;49.966;21.994;2024-02-14T05:10:33;35.43;;;16.00;;
18230;SDS011;9240;49.966;21.994;2024-02-14T05:13:00;43.27;;;21.30;;
18230;SDS011;9240;49.966;21.994;2024-02-14T05:15:25;29.43;;;16.17;;
18230;SDS011;9240;49.966;21.994;2024-02-14T05:17:51;25.73;;;13.27;;
18230;SDS011;9240;49.966;21.994;2024-02-14T05:20:17;22.70;;;11.73;;
18230;SDS011;9240;49.966;21.994;2024-02-14T05:22:42;24.57;;;11.17;;
18230;SDS011;9240;49.966;21.994;2024-02-14T05:25:08;19.63;;;9.27;;
18230;SDS011;9240;49.966;21.994;2024-02-14T05:27:34;18.67;;;8.73;;
18230;SDS011;9240;49.966;21.994;2024-02-14T05:30:01;16.53;;;8.53;;
18230;SDS011;9240;49.966;21.994;2024-02-14T05:32:27;22.57;;;9.17;;
18230;SDS011;9240;49.966;21.994;2024-02-14T05:34:52;17.70;;;8.10;;
18230;SDS011;9240;49.966;21.994;2024-02-14T05:37:18;17.43;;;8.80;;
18230;SDS011;9240;49.966;21.994;2024-02-14T05:39:43;18.33;;;8.60;;
18230;SDS011;9240;49.966;21.994;2024-02-14T05:42:09;22.43;;;8.37;;
18230;SDS011;9240;49.966;21.994;2024-02-14T05:44:35;16.67;;;7.77;;
18230;SDS011;9240;49.966;21.994;2024-02-14T05:47:01;17.20;;;7.43;;
18230;SDS011;9240;49.966;21.994;2024-02-14T05:49:27;17.53;;;8.50;;
18230;SDS011;9240;49.966;21.994;2024-02-14T05:51:53;19.30;;;8.20;;
18230;SDS011;9240;49.966;21.994;2024-02-14T05:54:19;13.20;;;7.93;;
18230;SDS011;9240;49.966;21.994;2024-02-14T05:56:44;19.27;;;8.50;;
18230;SDS011;9240;49.966;21.994;2024-02-14T05:59:10;16.20;;;8.50;;
18230;SDS011;9240;49.966;21.994;2024-02-14T06:01:35;19.80;;;8.50;;
18230;SDS011;9240;49.966;21.994;2024-02-14T06:04:02;15.93;;;8.70;;
18230;SDS011;9240;49.966;21.994;2024-02-14T06:06:28;19.73;;;9.13;;
18230;SDS011;9240;49.966;21.994;2024-02-14T06:08:54;18.63;;;8.57;;
18230;SDS011;9240;49.966;21.994;2024-02-14T06:11:19;18.13;;;9.00;;
18230;SDS011;9240;49.966;21.994;2024-02-14T06:13:45;18.70;;;8.80;;
18230;SDS011;9240;49.966;21.994;2024-02-14T06:16:11;17.40;;;8.20;;
18230;SDS011;9240;49.966;21.994;2024-02-14T06:18:36;18.07;;;8.97;;
18230;SDS011;9240;49.966;21.994;2024-02-14T06:21:03;19.17;;;8.30;;
18230;SDS011;9240;49.966;21.994;2024-02-14T06:23:29;20.90;;;9.27;;
18230;SDS011;9240;49.966;21.994;2024-02-14T06:25:55;20.83;;;9.13;;
18230;SDS011;9240;49.966;21.994;2024-02-14T06:28:20;18.73;;;9.10;;
18230;SDS011;9240;49.966;21.994;2024-02-14T06:30:46;20.27;;;9.70;;
18230;SDS011;9240;49.966;21.994;2024-02-14T06:33:11;17.00;;;8.43;;
18230;SDS011;9240;49.966;21.994;2024-02-14T06:35:37;16.53;;;9.37;;
18230;SDS011;9240;49.966;21.994;2024-02-14T06:38:04;18.57;;;8.50;;
18230;SDS011;9240;49.966;21.994;2024-02-14T06:40:30;20.67;;;10.10;;
18230;SDS011;9240;49.966;21.994;2024-02-14T06:42:55;23.37;;;10.13;;
18230;SDS011;9240;49.966;21.994;2024-02-14T06:45:21;18.43;;;8.80;;
18230;SDS011;9240;49.966;21.994;2024-02-14T06:47:46;21.07;;;10.20;;
18230;SDS011;9240;49.966;21.994;2024-02-14T06:50:12;17.97;;;9.20;;
18230;SDS011;9240;49.966;21.994;2024-02-14T06:52:37;22.10;;;9.63;;
18230;SDS011;9240;49.966;21.994;2024-02-14T06:55:05;21.77;;;10.50;;
18230;SDS011;9240;49.966;21.994;2024-02-14T06:57:30;17.47;;;9.93;;
18230;SDS011;9240;49.966;21.994;2024-02-14T06:59:56;18.17;;;9.43;;
18230;SDS011;9240;49.966;21.994;2024-02-14T07:02:22;22.70;;;10.03;;
18230;SDS011;9240;49.966;21.994;2024-02-14T07:04:47;21.00;;;9.77;;
18230;SDS011;9240;49.966;21.994;2024-02-14T07:07:14;21.30;;;10.67;;
18230;SDS011;9240;49.966;21.994;2024-02-14T07:09:39;19.67;;;10.23;;
18230;SDS011;9240;49.966;21.994;2024-02-14T07:12:06;18.87;;;10.63;;
18230;SDS011;9240;49.966;21.994;2024-02-14T07:14:32;23.27;;;11.03;;
18230;SDS011;9240;49.966;21.994;2024-02-14T07:16:58;25.13;;;12.10;;
18230;SDS011;9240;49.966;21.994;2024-02-14T07:19:23;26.57;;;11.33;;
18230;SDS011;9240;49.966;21.994;2024-02-14T07:21:49;25.20;;;10.83;;
18230;SDS011;9240;49.966;21.994;2024-02-14T07:24:14;22.23;;;10.80;;
18230;SDS011;9240;49.966;21.994;2024-02-14T07:26:40;23.50;;;10.07;;
18230;SDS011;9240;49.966;21.994;2024-02-14T07:29:07;26.87;;;10.70;;
18230;SDS011;9240;49.966;21.994;2024-02-14T07:31:32;26.40;;;9.77;;
18230;SDS011;9240;49.966;21.994;2024-02-14T07:33:58;18.93;;;9.13;;
18230;SDS011;9240;49.966;21.994;2024-02-14T07:36:23;17.83;;;8.67;;
18230;SDS011;9240;49.966;21.994;2024-02-14T07:38:49;20.33;;;9.50;;
18230;SDS011;9240;49.966;21.994;2024-02-14T07:41:14;22.10;;;9.23;;
18230;SDS011;9240;49.966;21.994;2024-02-14T07:43:40;22.87;;;10.20;;
18230;SDS011;9240;49.966;21.994;2024-02-14T07:46:07;22.93;;;9.23;;
18230;SDS011;9240;49.966;21.994;2024-02-14T07:48:33;28.33;;;10.33;;
18230;SDS011;9240;49.966;21.994;2024-02-14T07:50:58;20.23;;;9.43;;
18230;SDS011;9240;49.966;21.994;2024-02-14T07:53:24;18.50;;;9.67;;
18230;SDS011;9240;49.966;21.994;2024-02-14T07:55:49;21.30;;;9.87;;
18230;SDS011;9240;49.966;21.994;2024-02-14T07:58:15;20.37;;;9.73;;
18230;SDS011;9240;49.966;21.994;2024-02-14T08:00:40;20.87;;;9.33;;
18230;SDS011;9240;49.966;21.994;2024-02-14T08:03:07;20.80;;;9.83;;
18230;SDS011;9240;49.966;21.994;2024-02-14T08:05:33;19.33;;;9.70;;
18230;SDS011;9240;49.966;21.994;2024-02-14T08:07:59;20.57;;;9.57;;
18230;SDS011;9240;49.966;21.994;2024-02-14T08:10:24;19.53;;;9.10;;
18230;SDS011;9240;49.966;21.994;2024-02-14T08:12:50;21.07;;;9.90;;
18230;SDS011;9240;49.966;21.994;2024-02-14T08:15:15;22.63;;;10.13;;
18230;SDS011;9240;49.966;21.994;2024-02-14T08:17:41;23.77;;;10.13;;
18230;SDS011;9240;49.966;21.994;2024-02-14T08:20:08;19.03;;;10.20;;
18230;SDS011;9240;49.966;21.994;2024-02-14T08:22:34;19.33;;;9.00;;
18230;SDS011;9240;49.966;21.994;2024-02-14T08:25:00;16.83;;;9.07;;
18230;SDS011;9240;49.966;21.994;2024-02-14T08:27:26;18.27;;;9.40;;
18230;SDS011;9240;49.966;21.994;2024-02-14T08:29:51;17.00;;;9.10;;
18230;SDS011;9240;49.966;21.994;2024-02-14T08:32:17;20.83;;;10.17;;
18230;SDS011;9240;49.966;21.994;2024-02-14T08:34:42;15.17;;;9.00;;
18230;SDS011;9240;49.966;21.994;2024-02-14T08:37:09;19.27;;;9.80;;
18230;SDS011;9240;49.966;21.994;2024-02-14T08:39:35;25.40;;;9.90;;
18230;SDS011;9240;49.966;21.994;2024-02-14T08:42:00;26.53;;;12.63;;
18230;SDS011;9240;49.966;21.994;2024-02-14T08:44:26;32.00;;;12.80;;
18230;SDS011;9240;49.966;21.994;2024-02-14T08:46:51;18.67;;;9.30;;
18230;SDS011;9240;49.966;21.994;2024-02-14T08:49:17;20.87;;;9.83;;
18230;SDS011;9240;49.966;21.994;2024-02-14T08:51:42;16.33;;;8.40;;
18230;SDS011;9240;49.966;21.994;2024-02-14T08:54:09;17.80;;;8.17;;
18230;SDS011;9240;49.966;21.994;2024-02-14T08:56:35;20.67;;;8.77;;
18230;SDS011;9240;49.966;21.994;2024-02-14T08:59:01;16.67;;;8.70;;
18230;SDS011;9240;49.966;21.994;2024-02-14T09:01:27;16.15;;;7.50;;
18230;SDS011;9240;49.966;21.994;2024-02-14T09:03:53;16.70;;;7.40;;
18230;SDS011;9240;49.966;21.994;2024-02-14T09:06:19;11.07;;;6.93;;
18230;SDS011;9240;49.966;21.994;2024-02-14T09:08:44;14.82;;;7.68;;
18230;SDS011;9240;49.966;21.994;2024-02-14T09:11:11;15.18;;;7.40;;
18230;SDS011;9240;49.966;21.994;2024-02-14T09:13:37;14.70;;;7.78;;
18230;SDS011;9240;49.966;21.994;2024-02-14T09:16:03;15.33;;;7.33;;
18230;SDS011;9240;49.966;21.994;2024-02-14T09:18:29;11.40;;;6.25;;
18230;SDS011;9240;49.966;21.994;2024-02-14T09:20:54;10.70;;;6.13;;
18230;SDS011;9240;49.966;21.994;2024-02-14T09:23:20;14.05;;;6.95;;
18230;SDS011;9240;49.966;21.994;2024-02-14T09:25:45;13.75;;;6.32;;
18230;SDS011;9240;49.966;21.994;2024-02-14T09:28:12;12.65;;;6.88;;
18230;SDS011;9240;49.966;21.994;2024-02-14T09:30:38;14.95;;;7.43;;
18230;SDS011;9240;49.966;21.994;2024-02-14T09:33:04;11.13;;;6.07;;
18230;SDS011;9240;49.966;21.994;2024-02-14T09:35:29;18.42;;;6.72;;
18230;SDS011;9240;49.966;21.994;2024-02-14T09:37:55;18.30;;;8.48;;
18230;SDS011;9240;49.966;21.994;2024-02-14T09:40:20;15.93;;;7.78;;
18230;SDS011;9240;49.966;21.994;2024-02-14T09:42:48;11.23;;;5.47;;
18230;SDS011;9240;49.966;21.994;2024-02-14T09:45:19;11.63;;;5.72;;
18230;SDS011;9240;49.966;21.994;2024-02-14T09:47:46;11.80;;;5.10;;
18230;SDS011;9240;49.966;21.994;2024-02-14T09:50:13;8.35;;;4.07;;
18230;SDS011;9240;49.966;21.994;2024-02-14T09:52:38;5.63;;;2.40;;
18230;SDS011;9240;49.966;21.994;2024-02-14T09:55:05;9.23;;;2.72;;
18230;SDS011;9240;49.966;21.994;2024-02-14T09:57:31;6.30;;;2.72;;
18230;SDS011;9240;49.966;21.994;2024-02-14T09:59:57;4.82;;;2.33;;
18230;SDS011;9240;49.966;21.994;2024-02-14T10:02:26;4.13;;;1.90;;
18230;SDS011;9240;49.966;21.994;2024-02-14T10:04:52;5.43;;;3.00;;
18230;SDS011;9240;49.966;21.994;2024-02-14T10:07:17;7.38;;;2.92;;
18230;SDS011;9240;49.966;21.994;2024-02-14T10:09:43;11.73;;;4.20;;
18230;SDS011;9240;49.966;21.994;2024-02-14T10:12:09;10.70;;;3.80;;
18230;SDS011;9240;49.966;21.994;2024-02-14T10:14:34;8.95;;;4.20;;
18230;SDS011;9240;49.966;21.994;2024-02-14T10:17:00;9.57;;;4.15;;
18230;SDS011;9240;49.966;21.994;2024-02-14T10:19:27;17.90;;;8.15;;
18230;SDS011;9240;49.966;21.994;2024-02-14T10:21:56;16.80;;;5.43;;
18230;SDS011;9240;49.966;21.994;2024-02-14T10:24:21;4.63;;;1.92;;
18230;SDS011;9240;49.966;21.994;2024-02-14T10:26:48;2.85;;;1.40;;
18230;SDS011;9240;49.966;21.994;2024-02-14T10:29:14;6.40;;;2.00;;
18230;SDS011;9240;49.966;21.994;2024-02-14T10:31:40;3.55;;;2.25;;
18230;SDS011;9240;49.966;21.994;2024-02-14T10:34:06;5.35;;;1.67;;
18230;SDS011;9240;49.966;21.994;2024-02-14T10:36:34;3.42;;;1.73;;
18230;SDS011;9240;49.966;21.994;2024-02-14T10:39:01;4.47;;;2.13;;
18230;SDS011;9240;49.966;21.994;2024-02-14T10:41:27;4.47;;;2.17;;
18230;SDS011;9240;49.966;21.994;2024-02-14T10:43:55;5.43;;;1.93;;
18230;SDS011;9240;49.966;21.994;2024-02-14T10:46:22;6.80;;;2.05;;
18230;SDS011;9240;49.966;21.994;2024-02-14T10:48:49;7.50;;;2.10;;
18230;SDS011;9240;49.966;21.994;2024-02-14T10:51:18;5.35;;;2.50;;
18230;SDS011;9240;49.966;21.994;2024-02-14T10:53:46;7.60;;;2.75;;
18230;SDS011;9240;49.966;21.994;2024-02-14T10:56:17;4.53;;;2.53;;
18230;SDS011;9240;49.966;21.994;2024-02-14T10:58:43;12.60;;;2.83;;
18230;SDS011;9240;49.966;21.994;2024-02-14T11:01:12;4.43;;;2.20;;
18230;SDS011;9240;49.966;21.994;2024-02-14T11:03:38;4.30;;;2.40;;
18230;SDS011;9240;49.966;21.994;2024-02-14T11:06:04;6.43;;;2.60;;
18230;SDS011;9240;49.966;21.994;2024-02-14T11:08:30;4.63;;;2.40;;
18230;SDS011;9240;49.966;21.994;2024-02-14T11:10:58;7.43;;;2.40;;
18230;SDS011;9240;49.966;21.994;2024-02-14T11:13:25;6.07;;;2.35;;
18230;SDS011;9240;49.966;21.994;2024-02-14T11:15:51;7.88;;;2.60;;
18230;SDS011;9240;49.966;21.994;2024-02-14T11:18:24;6.38;;;2.65;;
18230;SDS011;9240;49.966;21.994;2024-02-14T11:20:50;9.27;;;3.40;;
18230;SDS011;9240;49.966;21.994;2024-02-14T11:23:20;8.32;;;2.72;;
18230;SDS011;9240;49.966;21.994;2024-02-14T11:25:47;8.23;;;2.63;;
18230;SDS011;9240;49.966;21.994;2024-02-14T11:28:14;10.85;;;2.80;;
18230;SDS011;9240;49.966;21.994;2024-02-14T11:30:40;6.57;;;3.28;;
18230;SDS011;9240;49.966;21.994;2024-02-14T11:33:12;18.40;;;2.63;;
18230;SDS011;9240;49.966;21.994;2024-02-14T11:35:39;4.85;;;2.35;;
18230;SDS011;9240;49.966;21.994;2024-02-14T11:38:05;7.43;;;2.55;;
18230;SDS011;9240;49.966;21.994;2024-02-14T11:40:31;6.35;;;2.38;;
18230;SDS011;9240;49.966;21.994;2024-02-14T11:42:56;4.80;;;2.50;;
18230;SDS011;9240;49.966;21.994;2024-02-14T11:45:23;5.57;;;2.38;;
18230;SDS011;9240;49.966;21.994;2024-02-14T11:47:49;3.08;;;1.98;;
18230;SDS011;9240;49.966;21.994;2024-02-14T11:50:15;5.97;;;2.20;;
18230;SDS011;9240;49.966;21.994;2024-02-14T11:52:42;5.93;;;2.33;;
18230;SDS011;9240;49.966;21.994;2024-02-14T11:55:08;5.77;;;2.00;;
18230;SDS011;9240;49.966;21.994;2024-02-14T11:57:34;4.32;;;2.42;;
18230;SDS011;9240;49.966;21.994;2024-02-14T12:00:00;4.53;;;2.20;;
18230;SDS011;9240;49.966;21.994;2024-02-14T12:02:27;7.35;;;2.60;;
18230;SDS011;9240;49.966;21.994;2024-02-14T12:04:53;5.53;;;2.30;;
18230;SDS011;9240;49.966;21.994;2024-02-14T12:07:20;6.97;;;2.30;;
18230;SDS011;9240;49.966;21.994;2024-02-14T12:09:45;11.02;;;3.25;;
18230;SDS011;9240;49.966;21.994;2024-02-14T12:12:11;24.98;;;7.93;;
18230;SDS011;9240;49.966;21.994;2024-02-14T12:14:36;12.88;;;4.65;;
18230;SDS011;9240;49.966;21.994;2024-02-14T12:17:02;8.52;;;3.40;;
18230;SDS011;9240;49.966;21.994;2024-02-14T12:19:29;43.17;;;15.45;;
18230;SDS011;9240;49.966;21.994;2024-02-14T12:21:55;34.60;;;10.93;;
18230;SDS011;9240;49.966;21.994;2024-02-14T12:24:20;9.52;;;3.33;;
18230;SDS011;9240;49.966;21.994;2024-02-14T12:26:46;4.28;;;2.35;;
18230;SDS011;9240;49.966;21.994;2024-02-14T12:29:12;8.40;;;2.65;;
18230;SDS011;9240;49.966;21.994;2024-02-14T12:31:37;8.95;;;2.97;;
18230;SDS011;9240;49.966;21.994;2024-02-14T12:34:03;5.88;;;2.60;;
18230;SDS011;9240;49.966;21.994;2024-02-14T12:36:30;5.18;;;2.63;;
18230;SDS011;9240;49.966;21.994;2024-02-14T12:38:57;3.35;;;2.38;;
18230;SDS011;9240;49.966;21.994;2024-02-14T12:41:22;5.90;;;2.33;;
18230;SDS011;9240;49.966;21.994;2024-02-14T12:43:48;5.68;;;3.03;;
18230;SDS011;9240;49.966;21.994;2024-02-14T12:46:13;5.35;;;2.60;;
18230;SDS011;9240;49.966;21.994;2024-02-14T12:48:39;4.60;;;2.42;;
18230;SDS011;9240;49.966;21.994;2024-02-14T12:51:05;6.30;;;2.28;;
18230;SDS011;9240;49.966;21.994;2024-02-14T12:53:31;6.30;;;2.03;;
18230;SDS011;9240;49.966;21.994;2024-02-14T12:55:57;9.80;;;2.97;;
18230;SDS011;9240;49.966;21.994;2024-02-14T12:58:23;4.75;;;3.05;;
18230;SDS011;9240;49.966;21.994;2024-02-14T13:00:48;4.07;;;2.50;;
18230;SDS011;9240;49.966;21.994;2024-02-14T13:03:14;5.38;;;2.00;;
18230;SDS011;9240;49.966;21.994;2024-02-14T13:05:39;5.72;;;2.40;;
18230;SDS011;9240;49.966;21.994;2024-02-14T13:08:05;3.75;;;2.25;;
18230;SDS011;9240;49.966;21.994;2024-02-14T13:10:33;4.93;;;2.40;;
18230;SDS011;9240;49.966;21.994;2024-02-14T13:12:59;6.88;;;2.33;;
18230;SDS011;9240;49.966;21.994;2024-02-14T13:15:24;4.85;;;2.58;;
18230;SDS011;9240;49.966;21.994;2024-02-14T13:17:50;3.90;;;2.30;;
18230;SDS011;9240;49.966;21.994;2024-02-14T13:20:15;5.60;;;2.92;;
18230;SDS011;9240;49.966;21.994;2024-02-14T13:22:41;9.57;;;2.90;;
18230;SDS011;9240;49.966;21.994;2024-02-14T13:25:07;6.97;;;3.00;;
18230;SDS011;9240;49.966;21.994;2024-02-14T13:27:34;8.60;;;3.22;;
18230;SDS011;9240;49.966;21.994;2024-02-14T13:30:00;5.13;;;2.70;;
18230;SDS011;9240;49.966;21.994;2024-02-14T13:32:25;6.38;;;2.50;;
18230;SDS011;9240;49.966;21.994;2024-02-14T13:34:51;5.07;;;2.75;;
18230;SDS011;9240;49.966;21.994;2024-02-14T13:37:16;5.47;;;2.90;;
18230;SDS011;9240;49.966;21.994;2024-02-14T13:39:42;6.55;;;2.90;;
18230;SDS011;9240;49.966;21.994;2024-02-14T13:42:07;5.38;;;2.83;;
18230;SDS011;9240;49.966;21.994;2024-02-14T13:44:34;5.65;;;2.90;;
18230;SDS011;9240;49.966;21.994;2024-02-14T13:47:00;4.35;;;2.30;;
18230;SDS011;9240;49.966;21.994;2024-02-14T13:49:25;5.05;;;2.70;;
18230;SDS011;9240;49.966;21.994;2024-02-14T13:51:51;4.45;;;2.60;;
18230;SDS011;9240;49.966;21.994;2024-02-14T13:54:24;5.35;;;2.72;;
18230;SDS011;9240;49.966;21.994;2024-02-14T13:56:49;6.68;;;2.92;;
18230;SDS011;9240;49.966;21.994;2024-02-14T13:59:15;7.70;;;2.50;;
18230;SDS011;9240;49.966;21.994;2024-02-14T14:01:42;4.82;;;2.20;;
18230;SDS011;9240;49.966;21.994;2024-02-14T14:04:08;7.80;;;2.60;;
18230;SDS011;9240;49.966;21.994;2024-02-14T14:06:34;6.77;;;2.70;;
18230;SDS011;9240;49.966;21.994;2024-02-14T14:08:59;5.87;;;2.80;;
18230;SDS011;9240;49.966;21.994;2024-02-14T14:11:25;8.03;;;2.70;;
18230;SDS011;9240;49.966;21.994;2024-02-14T14:13:50;7.23;;;2.80;;
18230;SDS011;9240;49.966;21.994;2024-02-14T14:16:16;9.90;;;2.60;;
18230;SDS011;9240;49.966;21.994;2024-02-14T14:18:43;8.53;;;2.57;;
18230;SDS011;9240;49.966;21.994;2024-02-14T14:21:08;6.10;;;2.67;;
18230;SDS011;9240;49.966;21.994;2024-02-14T14:23:34;11.37;;;3.20;;
18230;SDS011;9240;49.966;21.994;2024-02-14T14:26:00;8.20;;;2.60;;
18230;SDS011;9240;49.966;21.994;2024-02-14T14:28:25;5.63;;;2.40;;